Time;durP1;ratioP1;P1;durP2;ratioP2;P2;SDS_P1;SDS_P2;PMS_P1;PMS_P2;Temp;Humidity;BMP_temperature;BMP_pressure;BME280_temperature;BME280_humidity;BME280_pressure;Samples;Min_cycle;Max_cycle;Signal;HPM_P1;HPM_P2
2022/03/24 00:02:06;;;;;;;22.83;15.70;;;7.50;95.50;;;;;;5104205;28;20027;-66
2022/03/24 00:04:32;;;;;;;23.20;16.92;;;7.40;95.70;;;;;;5103910;27;20105;-66
2022/03/24 00:06:58;;;;;;;24.67;17.55;;;7.30;95.70;;;;;;5131741;27;20534;-66
2022/03/24 00:09:24;;;;;;;22.73;17.88;;;7.20;96.00;;;;;;5133034;27;20031;-66
2022/03/24 00:11:49;;;;;;;23.73;18.67;;;7.10;96.50;;;;;;5130983;27;20051;-66
2022/03/24 00:14:16;;;;;;;25.02;18.33;;;7.00;96.60;;;;;;5101942;28;20035;-66
2022/03/24 00:16:43;;;;;;;26.83;17.63;;;7.00;96.80;;;;;;5134309;27;20039;-66
2022/03/24 00:19:09;;;;;;;28.70;18.75;;;6.90;97.20;;;;;;5101594;28;20044;-66
2022/03/24 00:21:35;;;;;;;24.80;19.38;;;6.90;97.90;;;;;;5086832;28;20043;-66
2022/03/24 00:24:01;;;;;;;23.38;19.00;;;6.90;98.40;;;;;;5097983;28;20040;-65
2022/03/24 00:26:27;;;;;;;20.25;17.05;;;6.80;99.30;;;;;;5099306;28;20470;-66
2022/03/24 00:28:52;;;;;;;30.88;18.88;;;6.80;99.90;;;;;;5101842;28;20101;-66
2022/03/24 00:31:18;;;;;;;21.98;19.45;;;6.80;99.90;;;;;;5102893;28;20031;-66
2022/03/24 00:33:44;;;;;;;25.52;21.65;;;6.70;99.90;;;;;;5104712;28;20071;-66
2022/03/24 00:36:10;;;;;;;26.70;20.67;;;6.60;99.90;;;;;;5100350;27;20050;-66
2022/03/24 00:38:37;;;;;;;28.08;22.60;;;6.50;99.90;;;;;;5096571;28;20126;-66
2022/03/24 00:41:02;;;;;;;27.80;22.38;;;6.50;99.90;;;;;;5104853;27;20036;-66
2022/03/24 00:43:29;;;;;;;31.08;21.05;;;6.50;99.90;;;;;;5103755;27;20093;-65
2022/03/24 00:45:55;;;;;;;27.90;22.92;;;6.40;99.90;;;;;;5104594;27;20043;-65
2022/03/24 00:48:20;;;;;;;27.48;21.30;;;6.40;99.90;;;;;;5102034;28;20028;-66
2022/03/24 00:50:46;;;;;;;29.48;20.77;;;6.40;99.90;;;;;;5103643;28;20036;-66
2022/03/24 00:53:12;;;;;;;26.02;20.27;;;6.30;99.90;;;;;;5098296;28;20036;-66
2022/03/24 00:55:39;;;;;;;25.98;20.70;;;6.30;99.90;;;;;;5101137;28;20047;-66
2022/03/24 00:58:05;;;;;;;24.88;19.92;;;6.30;99.90;;;;;;5107802;27;20031;-66
2022/03/24 01:00:31;;;;;;;23.15;20.55;;;6.20;99.90;;;;;;5102508;28;20489;-66
2022/03/24 01:02:58;;;;;;;25.48;18.30;;;6.20;99.90;;;;;;5103542;27;20793;-66
2022/03/24 01:05:27;;;;;;;29.20;19.40;;;6.10;99.90;;;;;;5102523;27;20043;-66
2022/03/24 01:07:54;;;;;;;25.77;19.73;;;6.10;99.90;;;;;;5104260;28;20048;-66
2022/03/24 01:10:20;;;;;;;27.77;22.25;;;6.10;99.90;;;;;;5100981;28;20398;-66
2022/03/24 01:12:47;;;;;;;28.17;21.90;;;6.10;99.90;;;;;;5104839;27;20085;-66
2022/03/24 01:15:16;;;;;;;28.42;22.55;;;6.00;99.90;;;;;;5101672;27;20089;-66
2022/03/24 01:17:42;;;;;;;36.78;25.45;;;6.00;99.90;;;;;;5100028;28;20043;-66
2022/03/24 01:20:09;;;;;;;35.15;26.33;;;6.00;99.90;;;;;;5100317;28;20132;-66
2022/03/24 01:22:35;;;;;;;31.80;23.63;;;6.00;99.90;;;;;;5099907;28;20032;-66
2022/03/24 01:25:02;;;;;;;33.95;24.05;;;6.00;99.90;;;;;;5101302;28;20363;-66
2022/03/24 01:27:28;;;;;;;30.65;24.80;;;6.00;99.90;;;;;;5102504;27;20051;-65
2022/03/24 01:29:55;;;;;;;30.10;23.23;;;6.00;99.90;;;;;;5098661;27;20039;-66
2022/03/24 01:32:21;;;;;;;32.42;22.50;;;6.00;99.90;;;;;;5101002;28;20039;-66
2022/03/24 01:34:48;;;;;;;29.88;22.42;;;6.00;99.90;;;;;;5099901;28;20130;-66
2022/03/24 01:37:14;;;;;;;27.63;22.35;;;6.00;99.90;;;;;;5100554;28;20035;-66
2022/03/24 01:39:40;;;;;;;22.27;17.65;;;5.90;99.90;;;;;;5100766;28;20040;-66
2022/03/24 01:42:06;;;;;;;29.83;21.95;;;5.90;99.90;;;;;;5098804;28;20024;-66
2022/03/24 01:44:32;;;;;;;28.17;21.05;;;5.90;99.90;;;;;;5101021;28;21539;-66
2022/03/24 01:47:05;;;;;;;28.23;20.15;;;5.80;99.90;;;;;;5100548;28;20051;-66
2022/03/24 01:49:42;;;;;;;30.48;20.42;;;5.80;99.90;;;;;;5101683;28;20040;-66
2022/03/24 01:52:11;;;;;;;32.45;19.73;;;5.80;99.90;;;;;;5100406;28;20114;-66
2022/03/24 01:54:40;;;;;;;26.00;19.92;;;5.70;99.90;;;;;;5101203;28;20126;-66
2022/03/24 01:57:08;;;;;;;26.02;21.35;;;5.20;99.90;;;;;;5098470;28;20047;-66
2022/03/24 01:59:37;;;;;;;27.52;18.85;;;5.60;99.90;;;;;;5129330;27;20032;-66
2022/03/24 02:02:05;;;;;;;24.77;20.38;;;5.60;99.90;;;;;;5113366;27;20132;-66
2022/03/24 02:04:32;;;;;;;32.83;21.95;;;5.50;99.90;;;;;;5098639;28;20039;-66
2022/03/24 02:06:58;;;;;;;28.33;24.13;;;5.50;99.90;;;;;;5100902;28;20051;-66
2022/03/24 02:09:24;;;;;;;26.90;21.90;;;5.50;99.90;;;;;;5099594;28;20036;-66
2022/03/24 02:11:49;;;;;;;28.63;23.38;;;5.50;99.90;;;;;;5098281;28;20044;-66
2022/03/24 02:14:15;;;;;;;24.85;20.95;;;5.50;99.90;;;;;;5127857;27;20040;-65
2022/03/24 02:16:41;;;;;;;27.35;20.98;;;5.50;99.90;;;;;;5132708;27;20569;-66
2022/03/24 02:19:22;;;;;;;26.65;22.23;;;5.50;99.90;;;;;;5096662;28;20539;-65
2022/03/24 02:21:49;;;;;;;31.58;21.55;;;5.30;99.90;;;;;;5097350;28;20039;-66
2022/03/24 02:24:17;;;;;;;30.75;24.42;;;5.30;99.90;;;;;;5104062;28;20401;-65
2022/03/24 02:26:44;;;;;;;33.03;24.63;;;5.20;99.90;;;;;;5101096;27;20495;-65
2022/03/24 02:29:11;;;;;;;31.60;23.42;;;5.10;99.90;;;;;;5103091;28;20089;-66
2022/03/24 02:31:40;;;;;;;33.50;22.55;;;5.10;99.90;;;;;;5084379;28;20043;-66
2022/03/24 02:36:52;;;;;;;30.63;23.65;;;5.00;99.90;;;;;;5135646;27;20051;-66
2022/03/24 02:39:19;;;;;;;30.92;24.02;;;5.00;99.90;;;;;;5100491;27;20507;-66
2022/03/24 02:41:50;;;;;;;29.98;22.30;;;5.00;99.90;;;;;;5131753;27;20078;-66
2022/03/24 02:44:17;;;;;;;31.90;22.27;;;4.90;99.90;;;;;;5099224;28;20562;-65
2022/03/24 02:46:47;;;;;;;36.92;25.55;;;5.00;99.90;;;;;;5104089;28;20071;-66
2022/03/24 02:49:17;;;;;;;29.17;22.33;;;4.90;99.90;;;;;;5101036;28;20032;-66
2022/03/24 02:51:43;;;;;;;30.08;21.55;;;5.00;99.90;;;;;;5101323;28;20071;-66
2022/03/24 02:54:10;;;;;;;30.27;23.92;;;4.90;99.90;;;;;;5103701;27;20064;-66
2022/03/24 02:56:48;;;;;;;29.25;22.17;;;4.90;99.90;;;;;;5102766;27;20041;-65
2022/03/24 02:59:15;;;;;;;22.88;18.85;;;4.90;99.90;;;;;;5101426;28;20045;-66
2022/03/24 03:01:45;;;;;;;27.63;22.50;;;4.90;99.90;;;;;;5101466;28;20035;-66
2022/03/24 03:04:12;;;;;;;31.13;22.25;;;4.90;99.90;;;;;;5134451;27;20040;-65
2022/03/24 03:06:38;;;;;;;26.45;20.98;;;4.80;99.90;;;;;;5103978;28;20055;-66
2022/03/24 03:09:05;;;;;;;30.35;19.48;;;4.50;99.90;;;;;;5099681;27;20040;-66
2022/03/24 03:11:31;;;;;;;26.55;19.70;;;4.70;99.90;;;;;;5102280;28;20043;-66
2022/03/24 03:13:58;;;;;;;33.75;23.85;;;4.70;99.90;;;;;;5099656;28;20399;-66
2022/03/24 03:16:24;;;;;;;40.83;28.52;;;4.70;99.90;;;;;;5102731;28;20486;-66
2022/03/24 03:18:51;;;;;;;37.55;27.95;;;4.70;99.90;;;;;;5129894;27;20043;-66
2022/03/24 03:21:17;;;;;;;39.35;30.15;;;4.70;99.90;;;;;;5101716;28;20039;-66
2022/03/24 03:23:43;;;;;;;42.72;31.25;;;4.70;99.90;;;;;;5102424;27;20043;-66
2022/03/24 03:26:11;;;;;;;40.40;26.45;;;4.70;99.90;;;;;;5100652;28;20377;-65
2022/03/24 03:28:38;;;;;;;34.88;26.13;;;4.70;99.90;;;;;;5099589;28;20031;-65
2022/03/24 03:31:05;;;;;;;36.50;25.70;;;4.80;99.90;;;;;;5103695;28;20114;-66
2022/03/24 03:33:36;;;;;;;33.40;25.83;;;4.80;99.90;;;;;;5103489;28;20046;-66
2022/03/24 03:36:05;;;;;;;38.60;30.55;;;4.80;99.90;;;;;;5106309;28;20092;-66
2022/03/24 03:38:32;;;;;;;42.65;31.58;;;4.80;99.90;;;;;;5106094;27;20135;-66
2022/03/24 03:40:59;;;;;;;35.53;28.85;;;4.80;99.90;;;;;;5106384;27;20434;-66
2022/03/24 03:43:26;;;;;;;38.30;27.40;;;4.80;99.90;;;;;;5102091;27;20063;-66
2022/03/24 03:45:52;;;;;;;31.73;26.67;;;4.80;99.90;;;;;;5103818;28;20086;-66
2022/03/24 03:48:17;;;;;;;32.72;24.83;;;4.80;99.90;;;;;;5102762;28;20974;-66
2022/03/24 03:50:43;;;;;;;29.55;22.60;;;4.80;99.90;;;;;;5105381;28;20085;-66
2022/03/24 03:53:09;;;;;;;27.15;20.67;;;4.80;99.90;;;;;;5101004;28;20089;-66
2022/03/24 03:55:37;;;;;;;26.00;22.20;;;4.80;99.90;;;;;;5102777;27;20146;-66
2022/03/24 03:58:03;;;;;;;22.35;17.88;;;4.70;99.90;;;;;;5105567;28;20164;-66
2022/03/24 04:03:13;;;;;;;28.10;21.60;;;4.60;99.90;;;;;;5101758;28;20076;-66
2022/03/24 04:05:39;;;;;;;32.58;26.85;;;4.60;99.90;;;;;;5101882;28;20127;-66
2022/03/24 04:08:04;;;;;;;37.35;27.92;;;4.60;99.90;;;;;;5100149;27;20051;-65
2022/03/24 04:10:32;;;;;;;35.33;27.10;;;4.60;99.90;;;;;;5100039;28;20046;-65
2022/03/24 04:12:58;;;;;;;34.78;25.52;;;4.60;99.90;;;;;;5103324;28;20078;-66
2022/03/24 04:15:24;;;;;;;34.70;28.05;;;4.60;99.90;;;;;;5087130;28;20082;-66
2022/03/24 04:17:53;;;;;;;38.08;27.05;;;4.60;99.90;;;;;;5102428;28;20083;-66
2022/03/24 04:20:23;;;;;;;38.15;27.80;;;4.60;99.90;;;;;;5101631;28;20043;-66
2022/03/24 04:22:52;;;;;;;41.30;29.27;;;4.60;99.90;;;;;;5106406;27;20526;-66
2022/03/24 04:25:20;;;;;;;37.05;30.23;;;4.70;99.90;;;;;;5131148;27;20047;-66
2022/03/24 04:27:46;;;;;;;40.72;31.27;;;4.70;99.90;;;;;;5101626;28;20047;-66
2022/03/24 04:30:12;;;;;;;45.15;31.05;;;4.70;99.90;;;;;;5102306;28;20042;-66
2022/03/24 04:32:41;;;;;;;37.22;27.20;;;4.70;99.90;;;;;;5102086;28;20035;-66
2022/03/24 04:35:08;;;;;;;31.63;23.92;;;4.70;99.90;;;;;;5100014;28;20063;-66
2022/03/24 04:37:35;;;;;;;27.75;23.05;;;4.60;99.90;;;;;;5106050;27;20035;-66
2022/03/24 04:40:01;;;;;;;30.10;20.50;;;4.60;99.90;;;;;;5103448;27;20590;-66
2022/03/24 04:42:27;;;;;;;29.88;22.27;;;4.50;99.90;;;;;;5102492;28;20035;-66
2022/03/24 04:44:53;;;;;;;28.30;22.83;;;4.50;99.90;;;;;;5101529;28;20122;-66
2022/03/24 04:47:18;;;;;;;31.35;22.15;;;4.40;99.90;;;;;;5100490;28;20138;-66
2022/03/24 04:49:44;;;;;;;31.70;25.17;;;4.40;99.90;;;;;;5104380;28;20032;-65
2022/03/24 04:52:10;;;;;;;38.55;29.45;;;4.30;99.90;;;;;;5100663;27;20108;-65
2022/03/24 04:54:35;;;;;;;35.08;27.55;;;4.30;99.90;;;;;;5102312;28;20050;-65
2022/03/24 04:57:01;;;;;;;35.67;28.15;;;4.30;99.90;;;;;;5101099;28;20039;-65
2022/03/24 04:59:27;;;;;;;39.85;29.42;;;4.30;99.90;;;;;;5129453;27;20032;-65
2022/03/24 05:01:53;;;;;;;42.05;30.98;;;4.30;99.90;;;;;;5098353;27;20084;-65
2022/03/24 05:04:18;;;;;;;35.92;26.33;;;4.30;99.90;;;;;;5102581;28;20056;-66
2022/03/24 05:06:44;;;;;;;31.55;25.25;;;4.30;99.90;;;;;;5130718;27;20035;-66
2022/03/24 05:09:10;;;;;;;45.05;23.95;;;4.20;99.90;;;;;;5100866;27;20478;-66
2022/03/24 05:11:35;;;;;;;30.17;22.17;;;4.20;99.90;;;;;;5096672;28;20047;-66
2022/03/24 05:14:04;;;;;;;34.50;26.98;;;4.10;99.90;;;;;;5101016;28;20043;-66
2022/03/24 05:16:30;;;;;;;38.63;29.58;;;4.10;99.90;;;;;;5098380;28;20063;-66
2022/03/24 05:18:56;;;;;;;35.13;27.75;;;4.10;99.90;;;;;;5096516;28;20027;-66
2022/03/24 05:21:22;;;;;;;34.45;26.13;;;4.00;99.90;;;;;;5099125;27;20497;-65
2022/03/24 05:23:48;;;;;;;32.67;26.13;;;3.90;99.90;;;;;;5098076;28;20453;-65
2022/03/24 05:26:14;;;;;;;32.40;26.50;;;3.90;99.90;;;;;;5101202;28;20123;-66
2022/03/24 05:28:39;;;;;;;37.58;28.60;;;3.90;99.90;;;;;;5103632;27;20435;-66
2022/03/24 05:31:05;;;;;;;30.02;24.40;;;4.00;99.90;;;;;;5097650;27;20032;-66
2022/03/24 05:33:33;;;;;;;27.15;22.48;;;4.00;99.90;;;;;;5098147;27;20113;-65
2022/03/24 05:35:59;;;;;;;35.95;26.02;;;4.00;99.90;;;;;;5097260;28;20032;-66
2022/03/24 05:38:26;;;;;;;33.08;25.88;;;4.00;99.90;;;;;;5097197;28;20038;-66
2022/03/24 05:40:52;;;;;;;31.92;25.75;;;4.00;99.90;;;;;;5098094;28;20043;-66
2022/03/24 05:43:18;;;;;;;29.88;24.17;;;4.10;99.90;;;;;;5129104;27;20040;-65
2022/03/24 05:45:43;;;;;;;30.92;24.80;;;4.10;99.90;;;;;;5100011;27;20505;-65
2022/03/24 05:48:09;;;;;;;33.40;26.50;;;4.20;99.90;;;;;;5095242;28;20474;-66
2022/03/24 05:50:35;;;;;;;30.10;23.13;;;4.30;99.90;;;;;;5094522;28;20120;-66
2022/03/24 05:53:02;;;;;;;29.40;21.48;;;4.40;99.90;;;;;;5097854;28;20062;-65
2022/03/24 05:55:29;;;;;;;26.42;21.55;;;4.60;99.90;;;;;;5098714;28;20048;-66
2022/03/24 05:57:54;;;;;;;38.03;27.52;;;4.70;99.90;;;;;;5102207;28;20058;-66
2022/03/24 06:00:21;;;;;;;25.63;20.95;;;4.90;99.90;;;;;;5100038;28;20035;-66
2022/03/24 06:02:47;;;;;;;27.27;20.95;;;5.10;99.90;;;;;;5101198;28;20067;-66
2022/03/24 06:05:14;;;;;;;32.17;26.05;;;5.50;99.90;;;;;;5100436;28;20110;-66
2022/03/24 06:07:40;;;;;;;32.55;28.42;;;5.90;99.90;;;;;;5101871;28;20062;-65
2022/03/24 06:10:08;;;;;;;30.60;26.05;;;6.50;99.90;;;;;;5104116;28;20039;-65
2022/03/24 06:12:35;;;;;;;28.88;24.58;;;7.20;99.90;;;;;;5098971;28;20545;-65
2022/03/24 06:15:01;;;;;;;35.05;27.88;;;7.90;99.90;;;;;;5098589;28;20040;-66
2022/03/24 06:17:26;;;;;;;33.45;28.58;;;8.60;99.90;;;;;;5101959;28;20036;-66
2022/03/24 06:19:53;;;;;;;33.58;29.75;;;9.30;99.90;;;;;;5099997;28;20051;-66
2022/03/24 06:22:19;;;;;;;32.92;28.05;;;10.00;99.90;;;;;;5097480;28;20043;-66
2022/03/24 06:24:44;;;;;;;36.38;30.13;;;10.70;99.90;;;;;;5095709;28;20054;-66
2022/03/24 06:27:10;;;;;;;36.33;29.92;;;11.50;99.90;;;;;;5127803;27;20043;-66
2022/03/24 06:29:36;;;;;;;35.42;26.52;;;12.20;99.20;;;;;;5096523;28;20082;-66
2022/03/24 06:32:03;;;;;;;29.30;25.75;;;13.10;96.10;;;;;;5100604;28;20126;-66
2022/03/24 06:34:29;;;;;;;30.35;27.05;;;13.80;93.00;;;;;;5096503;28;20053;-66
2022/03/24 06:36:55;;;;;;;30.17;26.92;;;14.50;90.00;;;;;;5102293;28;20035;-66
2022/03/24 06:39:24;;;;;;;30.35;26.75;;;15.10;84.00;;;;;;5109854;28;20040;-66
2022/03/24 06:41:49;;;;;;;31.80;26.60;;;15.80;79.40;;;;;;5096727;28;20044;-66
2022/03/24 06:44:15;;;;;;;30.95;27.73;;;16.50;75.30;;;;;;5100876;28;20417;-66
2022/03/24 06:46:41;;;;;;;27.30;24.50;;;17.20;71.90;;;;;;5097709;28;20036;-66
2022/03/24 06:49:07;;;;;;;28.48;25.33;;;17.80;70.00;;;;;;5095731;28;20489;-67
2022/03/24 06:51:34;;;;;;;31.40;26.23;;;18.40;67.50;;;;;;5101616;28;20028;-67
2022/03/24 06:54:01;;;;;;;31.58;28.38;;;19.10;65.50;;;;;;5094884;28;20566;-67
2022/03/24 06:56:27;;;;;;;34.45;30.75;;;19.80;63.50;;;;;;5128709;27;20072;-66
2022/03/24 06:58:52;;;;;;;35.55;30.45;;;20.30;61.10;;;;;;5098755;28;20078;-67
2022/03/24 07:01:19;;;;;;;34.50;30.77;;;20.60;60.20;;;;;;5094989;28;20039;-66
2022/03/24 07:03:44;;;;;;;36.42;32.53;;;20.80;59.10;;;;;;5097329;28;20115;-66
2022/03/24 07:06:10;;;;;;;41.78;37.47;;;21.00;58.10;;;;;;5099521;28;20110;-67
2022/03/24 07:08:36;;;;;;;41.72;37.42;;;20.90;57.40;;;;;;5098013;28;20537;-67
2022/03/24 07:11:03;;;;;;;44.55;39.83;;;20.60;56.90;;;;;;5099725;28;20039;-67
2022/03/24 07:13:30;;;;;;;44.50;40.03;;;20.30;57.20;;;;;;5100629;28;20067;-67
2022/03/24 07:15:56;;;;;;;50.22;40.97;;;20.00;57.80;;;;;;5099067;28;20047;-67
2022/03/24 07:18:22;;;;;;;47.33;42.17;;;19.80;57.90;;;;;;5099892;28;20127;-67
2022/03/24 07:20:48;;;;;;;48.08;42.90;;;19.60;58.20;;;;;;5100793;28;20054;-67
2022/03/24 07:23:14;;;;;;;48.20;42.88;;;19.50;58.50;;;;;;5098708;28;20048;-67
2022/03/24 07:25:40;;;;;;;47.83;42.83;;;19.10;59.00;;;;;;5098042;28;20128;-67
2022/03/24 07:28:07;;;;;;;54.97;41.63;;;18.70;59.90;;;;;;5097571;28;20469;-67
2022/03/24 07:30:33;;;;;;;46.45;40.85;;;18.40;61.00;;;;;;5096500;27;20649;-67
2022/03/24 07:33:00;;;;;;;47.75;42.83;;;18.00;62.00;;;;;;5098641;28;20047;-67
2022/03/24 07:35:28;;;;;;;44.40;39.67;;;17.60;63.30;;;;;;5100935;28;20046;-67
2022/03/24 07:37:53;;;;;;;47.75;42.00;;;17.30;64.40;;;;;;5096586;28;20044;-67
2022/03/24 07:40:21;;;;;;;47.15;42.05;;;17.00;65.40;;;;;;5131218;27;20066;-67
2022/03/24 07:42:49;;;;;;;48.55;43.42;;;16.70;65.80;;;;;;5095269;28;20028;-67
2022/03/24 07:45:16;;;;;;;46.78;41.80;;;16.40;66.50;;;;;;5103044;28;20096;-67
2022/03/24 07:48:06;;;;;;;46.08;41.38;;;16.10;66.70;;;;;;5096948;28;20070;-67
2022/03/24 07:50:33;;;;;;;46.50;40.95;;;15.90;66.70;;;;;;5096391;28;20051;-67
2022/03/24 07:53:14;;;;;;;45.45;40.55;;;15.60;67.60;;;;;;5098647;28;20081;-67
2022/03/24 07:55:44;;;;;;;44.25;38.90;;;15.40;67.60;;;;;;5095999;28;20048;-66
2022/03/24 07:58:16;;;;;;;45.05;40.28;;;15.30;68.50;;;;;;5100665;28;20066;-67
2022/03/24 08:00:45;;;;;;;49.75;39.15;;;15.20;69.50;;;;;;5100285;28;20032;-67
2022/03/24 08:03:21;;;;;;;44.75;33.90;;;15.00;69.70;;;;;;5097358;28;20118;-67
2022/03/24 08:05:48;;;;;;;46.90;36.20;;;14.80;68.90;;;;;;5099745;28;20498;-67
2022/03/24 08:08:14;;;;;;;38.72;34.38;;;14.60;69.30;;;;;;5104054;27;20036;-67
2022/03/24 08:10:44;;;;;;;37.58;33.35;;;14.30;69.50;;;;;;5097014;28;20040;-67
2022/03/24 08:13:12;;;;;;;40.13;33.83;;;14.20;69.80;;;;;;5100215;27;20052;-67
2022/03/24 08:15:38;;;;;;;39.83;34.88;;;14.20;69.60;;;;;;5096091;28;20161;-67
2022/03/24 08:18:05;;;;;;;43.78;34.83;;;14.20;69.90;;;;;;5097757;28;20394;-66
2022/03/24 08:20:31;;;;;;;44.83;37.05;;;14.20;70.30;;;;;;5128138;27;20599;-66
2022/03/24 08:22:57;;;;;;;48.25;34.75;;;14.20;70.90;;;;;;5099581;28;20077;-66
2022/03/24 08:25:23;;;;;;;42.03;36.03;;;14.20;71.40;;;;;;5096448;28;20063;-66
2022/03/24 08:27:49;;;;;;;42.10;37.55;;;14.30;72.70;;;;;;5099903;28;20047;-66
2022/03/24 08:30:14;;;;;;;41.28;34.35;;;14.50;72.60;;;;;;5097478;27;20048;-66
2022/03/24 08:32:41;;;;;;;50.03;35.67;;;14.60;72.90;;;;;;5096458;28;20039;-67
2022/03/24 08:35:07;;;;;;;46.53;35.42;;;14.70;72.50;;;;;;5096682;28;20401;-67
2022/03/24 08:37:33;;;;;;;44.72;35.58;;;14.80;72.50;;;;;;5099139;28;20031;-67
2022/03/24 08:39:58;;;;;;;45.58;34.78;;;14.90;73.10;;;;;;5098565;28;20035;-67
2022/03/24 08:42:24;;;;;;;43.30;34.20;;;15.10;73.10;;;;;;5099062;28;20039;-67
2022/03/24 08:44:50;;;;;;;43.13;36.15;;;15.20;72.70;;;;;;5097869;28;20586;-67
2022/03/24 08:47:16;;;;;;;41.75;31.63;;;15.50;72.50;;;;;;5097018;28;20513;-67
2022/03/24 08:49:41;;;;;;;47.65;33.65;;;15.70;72.10;;;;;;5097073;28;20071;-67
2022/03/24 08:52:08;;;;;;;35.10;31.30;;;15.90;72.00;;;;;;5095704;27;20128;-67
2022/03/24 08:54:34;;;;;;;40.05;32.15;;;16.10;71.50;;;;;;5095508;28;20035;-67
2022/03/24 08:57:00;;;;;;;37.97;31.55;;;16.20;69.90;;;;;;5100055;28;20131;-67
2022/03/24 08:59:26;;;;;;;35.45;28.80;;;16.40;69.80;;;;;;5098250;28;20396;-67
2022/03/24 09:01:51;;;;;;;32.63;28.08;;;16.60;68.90;;;;;;5096992;28;20036;-66
2022/03/24 09:04:20;;;;;;;40.90;29.38;;;16.80;68.10;;;;;;5095903;28;20062;-67
2022/03/24 09:06:48;;;;;;;33.05;28.02;;;17.10;68.00;;;;;;5127227;27;20043;-67
2022/03/24 09:09:14;;;;;;;40.80;27.92;;;17.30;66.40;;;;;;5098204;27;20106;-67
2022/03/24 09:11:40;;;;;;;38.42;29.92;;;17.40;66.60;;;;;;5097829;28;20048;-67
2022/03/24 09:14:05;;;;;;;34.60;29.65;;;17.60;66.30;;;;;;5094176;28;20044;-67
2022/03/24 09:16:31;;;;;;;35.63;28.50;;;17.70;65.50;;;;;;5097008;27;20043;-67
2022/03/24 09:18:58;;;;;;;35.05;29.58;;;17.90;65.30;;;;;;5094942;28;20040;-67
2022/03/24 09:21:24;;;;;;;37.58;28.13;;;18.10;64.40;;;;;;5099436;28;20040;-67
2022/03/24 09:23:50;;;;;;;32.60;26.85;;;18.20;64.10;;;;;;5094206;28;20046;-67
2022/03/24 09:26:15;;;;;;;34.47;27.13;;;18.30;62.80;;;;;;5099032;27;20027;-67
2022/03/24 09:28:42;;;;;;;33.92;27.38;;;18.40;62.50;;;;;;5097714;27;20028;-67
2022/03/24 09:31:08;;;;;;;32.58;29.02;;;18.50;62.10;;;;;;5127928;27;20038;-67
2022/03/24 09:33:36;;;;;;;36.80;29.10;;;18.60;61.70;;;;;;5097955;28;20031;-67
2022/03/24 09:36:02;;;;;;;34.83;28.73;;;18.70;61.60;;;;;;5127614;27;20044;-66
2022/03/24 09:38:27;;;;;;;34.58;27.40;;;18.70;62.00;;;;;;5127488;27;20666;-65
2022/03/24 09:40:53;;;;;;;38.17;27.00;;;18.70;59.10;;;;;;5097637;28;20023;-67
2022/03/24 09:43:20;;;;;;;40.10;28.10;;;18.60;58.00;;;;;;5097642;28;20040;-67
2022/03/24 09:45:48;;;;;;;38.75;27.50;;;18.60;59.70;;;;;;5096611;28;20126;-67
2022/03/24 09:48:15;;;;;;;33.50;27.80;;;18.50;60.90;;;;;;5099437;27;20081;-67
2022/03/24 09:50:44;;;;;;;40.33;27.02;;;18.60;61.20;;;;;;5099331;28;20036;-67
2022/03/24 09:53:11;;;;;;;37.65;26.55;;;18.70;58.80;;;;;;5094749;28;20035;-67
2022/03/24 09:55:37;;;;;;;34.03;27.98;;;18.70;58.20;;;;;;5096452;28;20077;-67
2022/03/24 09:58:06;;;;;;;36.10;24.83;;;18.80;60.60;;;;;;5093684;28;20115;-67
2022/03/24 10:00:31;;;;;;;34.03;25.05;;;18.80;58.70;;;;;;5096350;28;20081;-67
2022/03/24 10:03:17;;;;;;;33.58;26.55;;;18.90;58.30;;;;;;5098795;28;20028;-67
2022/03/24 10:06:10;;;;;;;36.50;24.77;;;19.00;58.50;;;;;;5101184;28;20378;-67
2022/03/24 10:08:36;;;;;;;33.05;23.05;;;19.00;58.40;;;;;;5094918;28;20043;-67
2022/03/24 10:11:09;;;;;;;28.90;24.55;;;19.20;57.20;;;;;;5094308;28;20046;-67
2022/03/24 10:13:47;;;;;;;33.28;24.77;;;19.30;58.50;;;;;;5096310;28;20038;-67
2022/03/24 10:16:32;;;;;;;42.22;26.52;;;19.60;59.00;;;;;;5096806;28;20500;-67
2022/03/24 10:19:03;;;;;;;33.83;23.88;;;19.70;57.20;;;;;;5095719;28;20040;-67
2022/03/24 10:21:30;;;;;;;39.08;26.42;;;19.80;57.40;;;;;;5097917;28;20062;-66
2022/03/24 10:24:00;;;;;;;35.67;24.88;;;20.00;56.20;;;;;;5131228;27;20032;-67
2022/03/24 10:26:42;;;;;;;35.28;24.83;;;20.10;56.60;;;;;;5099449;28;20062;-67
2022/03/24 10:29:14;;;;;;;38.55;26.63;;;20.20;56.10;;;;;;5095983;28;20089;-67
2022/03/24 10:31:43;;;;;;;31.38;25.13;;;20.30;55.60;;;;;;5098593;28;20075;-67
2022/03/24 10:34:11;;;;;;;33.58;25.15;;;20.40;55.80;;;;;;5093717;28;20040;-67
2022/03/24 10:36:41;;;;;;;31.95;26.60;;;20.50;55.30;;;;;;5126946;27;20478;-67
2022/03/24 10:39:08;;;;;;;33.63;23.50;;;20.60;56.20;;;;;;5092547;28;20405;-67
2022/03/24 10:41:36;;;;;;;34.15;24.17;;;20.80;55.60;;;;;;5098583;28;20047;-67
2022/03/24 10:44:10;;;;;;;35.17;24.05;;;20.90;54.80;;;;;;5095028;28;20031;-67
2022/03/24 10:46:38;;;;;;;34.72;21.55;;;21.00;53.70;;;;;;5097117;28;20040;-67
2022/03/24 10:49:17;;;;;;;33.92;20.88;;;21.10;53.20;;;;;;5132813;27;20122;-67
2022/03/24 10:51:45;;;;;;;28.25;22.42;;;21.20;52.30;;;;;;5099671;28;20032;-67
2022/03/24 10:54:30;;;;;;;25.98;20.45;;;21.30;51.00;;;;;;5112488;27;20086;-67
2022/03/24 10:57:08;;;;;;;23.35;20.73;;;21.10;47.80;;;;;;5102680;28;20126;-67
2022/03/24 10:59:40;;;;;;;29.48;19.85;;;21.00;49.10;;;;;;5099382;28;20036;-67
2022/03/24 11:02:07;;;;;;;25.77;17.10;;;20.90;47.60;;;;;;5102169;28;20424;-67
2022/03/24 11:04:33;;;;;;;26.48;15.40;;;20.90;47.50;;;;;;5100892;28;20039;-67
2022/03/24 11:06:59;;;;;;;27.58;17.35;;;20.60;45.40;;;;;;5102863;28;20043;-67
2022/03/24 11:09:34;;;;;;;29.52;18.13;;;20.50;45.60;;;;;;5096402;28;20130;-67
2022/03/24 11:12:36;;;;;;;18.60;16.52;;;20.30;45.50;;;;;;5101199;28;20044;-67
2022/03/24 11:15:05;;;;;;;23.10;17.55;;;20.00;43.70;;;;;;5099806;28;20058;-67
2022/03/24 11:17:33;;;;;;;26.42;16.83;;;19.90;44.70;;;;;;5097927;28;20040;-67
2022/03/24 11:20:04;;;;;;;25.42;16.33;;;20.00;45.80;;;;;;5098425;28;20081;-67
2022/03/24 11:22:48;;;;;;;28.83;19.38;;;20.40;42.80;;;;;;5096587;28;20134;-67
2022/03/24 11:25:15;;;;;;;24.02;16.58;;;20.40;44.30;;;;;;5098299;28;20047;-67
2022/03/24 11:27:41;;;;;;;23.17;16.17;;;20.40;46.50;;;;;;5103941;28;20058;-67
2022/03/24 11:30:09;;;;;;;28.40;13.15;;;20.50;47.00;;;;;;5097266;28;20036;-67
2022/03/24 11:32:37;;;;;;;26.23;13.63;;;20.60;47.50;;;;;;5098770;28;20142;-67
2022/03/24 11:35:07;;;;;;;20.30;12.52;;;20.70;47.10;;;;;;5097167;27;20035;-67
2022/03/24 11:37:35;;;;;;;20.02;12.98;;;20.90;46.70;;;;;;5095923;28;20038;-67
2022/03/24 11:40:09;;;;;;;25.50;14.93;;;21.00;46.90;;;;;;5100990;28;20035;-67
2022/03/24 11:42:49;;;;;;;20.70;15.02;;;21.20;46.80;;;;;;5101448;28;20507;-67
2022/03/24 11:46:05;;;;;;;32.28;21.58;;;21.30;47.40;;;;;;5098330;27;20046;-67
2022/03/24 11:48:35;;;;;;;28.35;17.30;;;21.50;46.10;;;;;;5130083;27;20085;-67
2022/03/24 11:51:20;;;;;;;23.15;16.20;;;21.50;48.20;;;;;;5099976;28;20044;-67
2022/03/24 11:54:01;;;;;;;24.55;16.75;;;21.60;47.00;;;;;;5096093;28;20035;-67
2022/03/24 11:56:28;;;;;;;25.73;18.25;;;21.70;47.60;;;;;;5100919;28;20058;-67
2022/03/24 11:58:53;;;;;;;29.02;19.50;;;21.80;48.30;;;;;;5098531;28;20074;-68
2022/03/24 12:01:19;;;;;;;23.92;17.42;;;21.80;48.30;;;;;;5097617;28;20482;-67
2022/03/24 12:03:54;;;;;;;29.42;18.58;;;21.90;47.70;;;;;;5098727;28;20577;-67
2022/03/24 12:06:51;;;;;;;26.48;16.83;;;22.00;47.70;;;;;;5099248;27;20062;-67
2022/03/24 12:09:27;;;;;;;23.67;18.08;;;22.10;49.00;;;;;;5095415;28;20097;-67
2022/03/24 12:12:02;;;;;;;20.90;16.55;;;22.00;48.30;;;;;;5097352;28;20040;-67
2022/03/24 12:14:31;;;;;;;23.13;17.75;;;22.10;47.00;;;;;;5096031;28;20056;-67
2022/03/24 12:17:02;;;;;;;23.83;16.92;;;22.10;46.90;;;;;;5095794;28;20047;-67
2022/03/24 12:19:38;;;;;;;23.88;17.35;;;22.10;47.50;;;;;;5096054;28;20114;-67
2022/03/24 12:22:26;;;;;;;26.50;17.73;;;22.20;47.60;;;;;;5095636;28;20040;-68
2022/03/24 12:25:08;;;;;;;23.40;17.73;;;22.20;47.50;;;;;;5097048;27;21409;-67
2022/03/24 12:27:55;;;;;;;36.20;16.85;;;22.10;47.90;;;;;;5099176;28;20040;-67
2022/03/24 12:30:21;;;;;;;21.17;17.65;;;22.10;47.90;;;;;;5128900;27;20071;-67
2022/03/24 12:33:06;;;;;;;22.40;16.02;;;22.10;48.50;;;;;;5096035;28;20071;-67
2022/03/24 12:35:38;;;;;;;;;;;21.90;47.30;;;;;;5101385;28;20122;-67
2022/03/24 12:38:32;;;;;;;22.13;15.60;;;21.80;47.70;;;;;;5096481;28;19963;-67
2022/03/24 12:41:04;;;;;;;24.23;15.90;;;21.70;48.00;;;;;;5099910;28;20116;-67
2022/03/24 12:43:46;;;;;;;24.02;15.55;;;21.70;47.50;;;;;;5132116;27;20047;-67
2022/03/24 12:46:19;;;;;;;21.95;15.73;;;21.60;46.30;;;;;;5100973;28;20059;-67